createdAt,value
2022-10-23T00:18:26.979Z,10.40
2022-10-23T00:38:26.699Z,7.20
2022-10-23T00:58:26.413Z,9.30
2022-10-23T01:18:26.083Z,13.30
2022-10-23T01:38:25.808Z,11.50
2022-10-23T01:58:25.515Z,8.20
2022-10-23T02:18:25.221Z,13.30
2022-10-23T02:38:25.004Z,10.70
2022-10-23T02:58:24.643Z,11.10
2022-10-23T03:18:24.399Z,7.40
2022-10-23T03:38:24.164Z,7.70
2022-10-23T03:58:23.840Z,10.10
2022-10-23T04:18:23.615Z,10.20
2022-10-23T04:38:23.335Z,15.20
2022-10-23T04:58:23.087Z,9.20
2022-10-23T05:18:22.774Z,9.90
2022-10-23T05:38:22.496Z,7.80
2022-10-23T05:58:22.213Z,9.90
2022-10-23T06:18:21.990Z,7.70
2022-10-23T06:38:21.654Z,16.20
2022-10-23T06:58:21.379Z,9.10
2022-10-23T07:18:21.137Z,9.60
2022-10-23T07:38:20.848Z,11.20
2022-10-23T07:58:20.567Z,8.20
2022-10-23T08:18:20.292Z,6.90
2022-10-23T08:38:20.020Z,9.70
2022-10-23T08:58:19.744Z,8.40
2022-10-23T09:18:19.474Z,10.90
2022-10-23T09:38:19.198Z,6.90
2022-10-23T09:58:18.914Z,6.50
2022-10-23T10:18:18.642Z,6.90
2022-10-23T10:38:18.357Z,6.00
2022-10-23T10:58:18.119Z,5.70
2022-10-23T11:18:17.812Z,5.10
2022-10-23T11:38:17.550Z,6.40
2022-10-23T11:58:17.277Z,4.30
2022-10-23T12:18:17.045Z,5.40
2022-10-23T12:38:16.712Z,3.90
2022-10-23T12:58:16.450Z,4.30
2022-10-23T13:18:16.293Z,4.30
2022-10-23T13:38:15.917Z,3.10
2022-10-23T13:58:15.650Z,3.00
2022-10-23T14:18:15.401Z,3.40
2022-10-23T14:38:15.120Z,4.70
2022-10-23T14:58:14.846Z,5.00
2022-10-23T15:18:14.573Z,3.10
2022-10-23T15:38:14.291Z,5.00
2022-10-23T15:58:14.021Z,3.40
2022-10-23T16:18:13.736Z,3.60
2022-10-23T16:38:13.454Z,2.40
2022-10-23T16:58:13.178Z,3.90
2022-10-23T17:18:12.926Z,4.00
2022-10-23T17:38:12.616Z,3.40
2022-10-23T17:58:12.395Z,3.30
2022-10-23T18:18:12.061Z,6.40
2022-10-23T18:38:11.859Z,11.30
2022-10-23T18:58:11.510Z,9.20
2022-10-23T19:18:11.280Z,6.70
2022-10-23T19:38:10.939Z,4.40
2022-10-23T19:58:10.668Z,3.10
2022-10-23T20:18:10.383Z,4.20
2022-10-23T20:38:10.101Z,2.70
2022-10-23T20:58:09.868Z,1.50
2022-10-23T21:18:20.733Z,2.10
2022-10-23T21:38:09.271Z,2.40
2022-10-23T21:58:08.995Z,2.20
2022-10-23T22:18:08.711Z,2.50
2022-10-23T22:38:08.437Z,2.40
2022-10-23T22:58:08.151Z,2.70
2022-10-23T23:18:07.867Z,2.80
2022-10-23T23:38:07.586Z,2.90
2022-10-23T23:58:07.333Z,3.20
